Strona główna
METAR-TAF:

METAR-TAF

Lotnisko :

Port lotniczy Windawa

Windawa, Łotwa

Szerokość geograficzna: 57-21-28N, Długość geograficzna: 021-32-39E, wysokość: 6 m

Aktualna obserwacja pogody

Raport powstał 58 minut temu, godzina 11:20 UTC
Wiatr 21 kt od zachód
Temperatura 7°C
Wilgotność 53%
Ciśnienie 995 hPa
Widzialność 10 km lub więcej
Brak chmur poniżej 1500 m i brak chmur cumulonimbus

METAR: EVVA 031120Z AUTO 27021KT CAVOK 07/M02 Q0995

czas: 15:18 (12:18 UTC)


TAF: brakujący

Obserwacja i prognoza pogody dla ponad 4000 lotnisk (raport METAR i TAF).

Dostępne stacje oznaczono żółtymi i czerwonymi punktami na mapie.

Najedź kursorem aby zobaczyć nazwę stacji.

Kliknij aby zobaczyć obserwacje i prognozy pogody.

Aby zmienić mapę: kliknij na zielony przycisk z czarnym krzyżykiem, aby powiększyć; na zielony przycisk z myślnikiem, aby pomniejszyć; na zielone strzałki, aby przejść do map sąsiednich.


METAR-TAF: